createdAt,value
2018-07-25T00:01:38.838Z,18.32
2018-07-25T00:04:10.645Z,18.31
2018-07-25T00:07:25.613Z,18.26
2018-07-25T00:09:55.953Z,18.23
2018-07-25T00:12:26.781Z,18.18
2018-07-25T00:14:59.824Z,18.16
2018-07-25T00:17:33.800Z,18.23
2018-07-25T00:20:05.213Z,18.17
2018-07-25T00:22:47.717Z,18.14
2018-07-25T00:25:19.766Z,18.12
2018-07-25T00:27:49.967Z,18.05
2018-07-25T00:30:21.053Z,17.99
2018-07-25T00:32:51.198Z,17.96
2018-07-25T00:35:21.080Z,17.91
2018-07-25T00:37:50.871Z,17.89
2018-07-25T00:40:23.846Z,17.89
2018-07-25T00:42:55.207Z,17.83
2018-07-25T00:45:25.038Z,17.77
2018-07-25T00:47:54.894Z,17.76
2018-07-25T00:50:25.211Z,17.78
2018-07-25T00:53:02.220Z,17.77
2018-07-25T00:55:32.095Z,17.78
2018-07-25T00:58:02.015Z,17.72
2018-07-25T01:00:32.217Z,17.74
2018-07-25T01:03:04.848Z,17.72
2018-07-25T01:05:35.604Z,17.80
2018-07-25T01:09:20.982Z,17.81
2018-07-25T01:14:44.425Z,17.88
2018-07-25T01:17:14.301Z,17.92
2018-07-25T01:19:44.431Z,17.92
2018-07-25T01:22:14.216Z,17.91
2018-07-25T01:24:44.803Z,17.84
2018-07-25T01:27:14.473Z,17.79
2018-07-25T01:29:46.524Z,17.76
2018-07-25T01:32:16.705Z,17.68
2018-07-25T01:34:46.860Z,17.66
2018-07-25T01:37:16.908Z,17.63
2018-07-25T01:39:51.904Z,17.57
2018-07-25T01:42:23.231Z,17.51
2018-07-25T01:44:53.773Z,17.41
2018-07-25T01:52:24.359Z,17.38
2018-07-25T01:54:56.650Z,17.36
2018-07-25T01:57:26.444Z,17.39
2018-07-25T01:59:57.082Z,17.35
2018-07-25T02:02:28.952Z,17.33
2018-07-25T02:05:05.245Z,17.30
2018-07-25T02:07:36.131Z,17.27
2018-07-25T02:10:09.454Z,17.32
2018-07-25T02:12:39.504Z,17.34
2018-07-25T02:15:10.263Z,17.34
2018-07-25T02:17:41.068Z,17.31
2018-07-25T02:20:14.828Z,17.26
2018-07-25T02:22:44.894Z,17.20
2018-07-25T02:25:14.782Z,17.20
2018-07-25T02:27:48.308Z,17.19
2018-07-25T02:30:20.282Z,17.15
2018-07-25T02:32:53.462Z,17.15
2018-07-25T02:35:23.764Z,17.13
2018-07-25T02:37:53.869Z,17.12
2018-07-25T02:40:24.336Z,17.09
2018-07-25T02:45:36.110Z,17.11
2018-07-25T02:48:08.693Z,17.13
2018-07-25T02:50:43.274Z,17.10
2018-07-25T02:53:13.272Z,17.11
2018-07-25T02:55:43.042Z,17.14
2018-07-25T02:58:12.685Z,17.14
2018-07-25T03:00:42.632Z,17.16
2018-07-25T03:03:12.543Z,17.15
2018-07-25T03:05:42.458Z,17.15
2018-07-25T03:08:12.358Z,17.08
2018-07-25T03:10:55.739Z,17.02
2018-07-25T03:13:27.380Z,17.09
2018-07-25T03:16:06.525Z,17.06
2018-07-25T03:18:37.369Z,16.99
2018-07-25T03:21:07.142Z,16.95
2018-07-25T03:23:37.638Z,17.00
2018-07-25T03:29:01.499Z,16.97
2018-07-25T03:31:31.726Z,16.94
2018-07-25T03:34:01.979Z,16.88
2018-07-25T03:36:31.854Z,16.80
2018-07-25T03:39:01.666Z,16.78
2018-07-25T03:41:33.948Z,16.83
2018-07-25T03:44:03.830Z,16.76
2018-07-25T03:46:33.736Z,16.77
2018-07-25T03:49:07.708Z,16.69
2018-07-25T03:51:37.665Z,16.68
2018-07-25T03:54:07.675Z,16.66
2018-07-25T03:56:37.788Z,16.64
2018-07-25T03:59:07.579Z,16.68
2018-07-25T04:01:37.632Z,16.64
2018-07-25T04:04:07.445Z,16.65
2018-07-25T04:06:37.596Z,16.62
2018-07-25T04:09:09.031Z,16.60
2018-07-25T04:11:38.945Z,16.59
2018-07-25T04:14:08.818Z,16.55
2018-07-25T04:16:38.593Z,16.52
2018-07-25T04:19:10.571Z,16.51
2018-07-25T04:21:42.091Z,16.50
2018-07-25T04:24:11.903Z,16.54
2018-07-25T04:26:41.752Z,16.57
2018-07-25T04:29:12.797Z,16.59
2018-07-25T04:31:45.062Z,16.60
2018-07-25T04:34:15.601Z,16.62
2018-07-25T04:36:45.682Z,16.62
2018-07-25T04:39:15.780Z,16.71
2018-07-25T04:41:47.950Z,16.75
2018-07-25T04:44:17.718Z,16.87
2018-07-25T04:46:47.545Z,16.92
2018-07-25T04:49:18.033Z,16.98
2018-07-25T04:51:48.502Z,17.08
2018-07-25T04:54:18.927Z,17.11
2018-07-25T04:56:48.732Z,17.17
2018-07-25T04:59:18.570Z,17.26
2018-07-25T05:01:48.450Z,17.36
2018-07-25T05:04:22.317Z,17.41
2018-07-25T05:06:52.599Z,17.51
2018-07-25T05:09:22.908Z,17.63
2018-07-25T05:11:52.826Z,17.72
2018-07-25T05:14:22.964Z,17.80
2018-07-25T05:16:52.867Z,17.88
2018-07-25T05:19:22.659Z,17.97
2018-07-25T05:21:52.597Z,18.06
2018-07-25T05:24:22.517Z,18.13
2018-07-25T05:26:52.841Z,18.25
2018-07-25T05:29:23.105Z,18.36
2018-07-25T05:31:53.177Z,18.43
2018-07-25T05:34:23.018Z,18.52
2018-07-25T05:36:53.665Z,18.64
2018-07-25T05:39:23.459Z,18.73
2018-07-25T05:41:53.438Z,18.82
2018-07-25T05:44:23.550Z,18.89
2018-07-25T05:46:53.392Z,19.00
2018-07-25T05:49:23.779Z,19.13
2018-07-25T05:51:53.730Z,19.19
2018-07-25T05:54:23.811Z,19.33
2018-07-25T05:56:53.663Z,19.44
2018-07-25T05:59:23.526Z,19.52
2018-07-25T06:01:53.307Z,19.63
2018-07-25T06:04:23.524Z,19.76
2018-07-25T06:06:53.960Z,19.85
2018-07-25T06:09:23.873Z,19.98
2018-07-25T06:11:53.840Z,20.10
2018-07-25T06:14:23.833Z,20.23
2018-07-25T06:16:53.639Z,20.39
2018-07-25T06:19:24.803Z,20.53
2018-07-25T06:21:54.708Z,20.70
2018-07-25T06:24:24.534Z,20.85
2018-07-25T06:26:54.378Z,21.01
2018-07-25T06:29:24.214Z,21.14
2018-07-25T06:31:54.413Z,21.28
2018-07-25T06:34:24.274Z,21.43
2018-07-25T06:36:54.138Z,21.63
2018-07-25T06:39:23.982Z,21.79
2018-07-25T06:41:54.192Z,21.96
2018-07-25T06:44:25.325Z,22.13
2018-07-25T06:48:09.799Z,22.29
2018-07-25T06:50:39.647Z,22.55
2018-07-25T06:53:09.507Z,22.71
2018-07-25T06:55:39.303Z,22.86
2018-07-25T06:58:10.401Z,23.01
2018-07-25T07:00:40.520Z,23.18
2018-07-25T07:03:11.022Z,23.31
2018-07-25T07:05:40.833Z,23.39
2018-07-25T07:08:10.743Z,23.51
2018-07-25T07:10:40.463Z,23.67
2018-07-25T07:13:10.530Z,23.84
2018-07-25T07:15:40.371Z,24.02
2018-07-25T07:18:10.229Z,24.18
2018-07-25T07:20:40.070Z,24.36
2018-07-25T07:23:09.894Z,24.60
2018-07-25T07:25:39.667Z,24.82
2018-07-25T07:28:10.169Z,24.95
2018-07-25T07:30:40.001Z,25.12
2018-07-25T07:33:09.778Z,25.28
2018-07-25T07:35:40.235Z,25.45
2018-07-25T07:38:10.961Z,25.67
2018-07-25T07:40:40.877Z,25.80
2018-07-25T07:43:11.294Z,25.99
2018-07-25T07:45:41.074Z,26.20
2018-07-25T07:48:10.823Z,26.40
2018-07-25T07:50:40.809Z,26.55
2018-07-25T07:53:10.534Z,26.68
2018-07-25T07:55:40.286Z,26.80
2018-07-25T07:58:10.347Z,26.96
2018-07-25T08:00:40.196Z,27.09
2018-07-25T08:03:10.104Z,27.24
2018-07-25T08:05:39.948Z,27.35
2018-07-25T08:08:12.086Z,27.48
2018-07-25T08:10:41.869Z,27.52
2018-07-25T08:13:11.581Z,27.64
2018-07-25T08:15:41.319Z,27.73
2018-07-25T08:18:11.298Z,27.90
2018-07-25T08:20:41.068Z,28.09
2018-07-25T08:23:10.913Z,28.35
2018-07-25T08:25:40.684Z,28.34
2018-07-25T08:28:10.479Z,28.49
2018-07-25T08:30:40.329Z,28.72
2018-07-25T08:33:10.344Z,28.82
2018-07-25T08:35:40.041Z,29.14
2018-07-25T08:38:09.807Z,29.83
2018-07-25T08:40:41.899Z,30.44
2018-07-25T08:43:11.816Z,31.32
2018-07-25T08:45:41.581Z,32.17
2018-07-25T08:48:11.647Z,33.11
2018-07-25T08:50:41.329Z,32.87
2018-07-25T08:53:11.089Z,33.29
2018-07-25T08:55:41.217Z,33.59
2018-07-25T08:58:10.919Z,34.17
2018-07-25T09:00:40.868Z,34.18
2018-07-25T09:03:10.664Z,34.56
2018-07-25T09:05:41.488Z,35.50
2018-07-25T09:08:11.520Z,34.94
2018-07-25T09:10:42.373Z,34.90
2018-07-25T09:13:12.257Z,35.20
2018-07-25T09:15:43.367Z,35.65
2018-07-25T09:18:13.200Z,35.70
2018-07-25T09:20:42.969Z,35.97
2018-07-25T09:23:12.966Z,36.85
2018-07-25T09:25:42.745Z,36.31
2018-07-25T09:28:12.537Z,36.39
2018-07-25T09:30:43.722Z,37.58
2018-07-25T09:33:13.487Z,37.92
2018-07-25T09:35:43.304Z,37.45
2018-07-25T09:38:13.180Z,37.94
2018-07-25T09:40:44.001Z,38.29
2018-07-25T09:43:13.861Z,37.14
2018-07-25T09:45:44.181Z,37.27
2018-07-25T09:48:13.934Z,38.04
2018-07-25T09:50:44.263Z,37.37
2018-07-25T09:53:14.096Z,38.23
2018-07-25T09:55:44.360Z,38.06
2018-07-25T09:58:14.227Z,38.23
2018-07-25T10:00:47.684Z,37.43
2018-07-25T10:03:25.085Z,37.82
2018-07-25T10:06:00.150Z,38.07
2018-07-25T10:08:37.198Z,38.40
2018-07-25T10:11:07.306Z,38.06
2018-07-25T10:13:37.236Z,37.79
2018-07-25T10:16:07.240Z,37.85
2018-07-25T10:18:37.014Z,36.70
2018-07-25T10:21:07.394Z,36.40
2018-07-25T10:23:37.161Z,37.00
2018-07-25T10:26:06.908Z,36.51
2018-07-25T10:28:36.925Z,36.92
2018-07-25T10:31:24.292Z,37.35
2018-07-25T10:34:00.125Z,37.15
2018-07-25T10:36:34.754Z,36.78
2018-07-25T10:39:13.939Z,35.35
2018-07-25T10:41:48.131Z,35.88
2018-07-25T10:44:24.024Z,35.80
2018-07-25T10:47:00.430Z,35.55
2018-07-25T10:49:34.859Z,34.82
2018-07-25T10:52:07.394Z,34.09
2018-07-25T10:57:22.274Z,33.70
2018-07-25T10:59:57.202Z,33.66
2018-07-25T11:02:28.445Z,33.84
2018-07-25T11:05:04.420Z,34.21
2018-07-25T11:07:40.600Z,34.54
2018-07-25T11:10:13.099Z,35.11
2018-07-25T11:12:45.952Z,35.00
2018-07-25T11:15:17.504Z,34.87
2018-07-25T11:17:49.540Z,34.51
2018-07-25T11:20:28.744Z,34.44
2018-07-25T11:26:01.329Z,34.93
2018-07-25T11:28:49.539Z,34.88
2018-07-25T11:31:30.124Z,34.65
2018-07-25T11:34:10.076Z,34.92
2018-07-25T11:36:48.002Z,35.62
2018-07-25T11:39:26.303Z,35.76
2018-07-25T11:42:06.850Z,35.96
2018-07-25T11:44:37.984Z,35.84
2018-07-25T11:47:10.339Z,35.88
2018-07-25T11:49:46.369Z,36.20
2018-07-25T11:52:19.682Z,37.70
2018-07-25T11:54:53.237Z,38.72
2018-07-25T11:58:02.669Z,39.14
2018-07-25T12:00:38.084Z,38.93
2018-07-25T12:03:14.181Z,38.71
2018-07-25T12:05:51.458Z,37.85
2018-07-25T12:08:25.431Z,37.37
2018-07-25T12:11:04.205Z,37.13
2018-07-25T12:13:36.488Z,36.96
2018-07-25T12:16:14.883Z,37.38
2018-07-25T12:18:48.281Z,36.54
2018-07-25T12:21:23.573Z,35.72
2018-07-25T12:23:56.243Z,35.51
2018-07-25T12:26:28.039Z,35.60
2018-07-25T12:28:59.839Z,35.21
2018-07-25T12:31:35.947Z,35.55
2018-07-25T12:34:06.873Z,35.56
2018-07-25T12:36:44.383Z,35.32
2018-07-25T12:39:14.708Z,35.80
2018-07-25T12:41:50.447Z,36.11
2018-07-25T12:44:21.059Z,36.41
2018-07-25T12:46:56.258Z,36.86
2018-07-25T12:49:54.630Z,36.85
2018-07-25T12:52:32.516Z,36.78
2018-07-25T12:55:08.470Z,36.12
2018-07-25T12:57:38.935Z,35.83
2018-07-25T13:00:10.719Z,35.72
2018-07-25T13:02:41.299Z,36.36
2018-07-25T13:05:12.461Z,36.74
2018-07-25T13:07:42.573Z,36.69
2018-07-25T13:10:12.793Z,36.85
2018-07-25T13:12:43.273Z,37.36
2018-07-25T13:15:13.360Z,38.38
2018-07-25T13:17:43.506Z,39.69
2018-07-25T13:20:13.577Z,40.13
2018-07-25T13:22:43.426Z,41.50
2018-07-25T13:25:13.393Z,41.22
2018-07-25T13:27:44.639Z,40.86
2018-07-25T13:30:15.589Z,41.96
2018-07-25T13:32:46.484Z,42.31
2018-07-25T13:35:16.392Z,43.80
2018-07-25T13:37:46.295Z,43.67
2018-07-25T13:40:16.216Z,44.59
2018-07-25T13:42:46.333Z,44.38
2018-07-25T13:45:16.233Z,45.06
2018-07-25T13:47:46.085Z,44.99
2018-07-25T13:50:16.089Z,44.92
2018-07-25T13:52:46.909Z,45.57
2018-07-25T13:55:16.914Z,45.84
2018-07-25T13:57:46.969Z,46.41
2018-07-25T14:00:16.764Z,44.42
2018-07-25T14:02:47.886Z,44.20
2018-07-25T14:05:17.784Z,44.63
2018-07-25T14:07:47.418Z,45.28
2018-07-25T14:10:17.229Z,45.06
2018-07-25T14:12:47.040Z,45.28
2018-07-25T14:15:16.900Z,44.40
2018-07-25T14:17:47.015Z,44.94
2018-07-25T14:20:17.039Z,46.10
2018-07-25T14:22:46.971Z,44.63
2018-07-25T14:25:16.827Z,44.48
2018-07-25T14:27:47.046Z,44.37
2018-07-25T14:30:17.025Z,40.66
2018-07-25T14:35:50.178Z,36.19
2018-07-25T14:38:19.993Z,35.18
2018-07-25T14:40:50.315Z,34.53
2018-07-25T14:43:20.243Z,33.91
2018-07-25T14:45:50.149Z,33.98
2018-07-25T14:48:19.944Z,33.62
2018-07-25T14:50:49.834Z,33.63
2018-07-25T14:53:19.719Z,34.55
2018-07-25T14:55:57.081Z,35.82
2018-07-25T14:58:26.946Z,36.29
2018-07-25T15:00:56.759Z,35.78
2018-07-25T15:03:26.880Z,35.31
2018-07-25T15:05:56.787Z,34.58
2018-07-25T15:08:26.679Z,33.98
2018-07-25T15:10:57.670Z,33.74
2018-07-25T15:13:27.851Z,33.29
2018-07-25T15:15:58.657Z,33.00
2018-07-25T15:18:29.340Z,32.99
2018-07-25T15:20:59.452Z,32.68
2018-07-25T15:23:40.590Z,32.43
2018-07-25T15:26:10.725Z,32.32
2018-07-25T15:28:43.315Z,32.30
2018-07-25T15:31:13.919Z,32.39
2018-07-25T15:33:44.868Z,32.41
2018-07-25T15:36:24.953Z,32.52
2018-07-25T15:38:55.609Z,32.54
2018-07-25T15:41:26.032Z,32.24
2018-07-25T15:43:56.094Z,31.99
2018-07-25T15:46:26.527Z,31.89
2018-07-25T15:48:57.014Z,31.78
2018-07-25T15:51:27.956Z,31.65
2018-07-25T15:53:58.651Z,31.66
2018-07-25T15:56:29.160Z,31.72
2018-07-25T15:58:59.496Z,31.97
2018-07-25T16:01:30.258Z,31.98
2018-07-25T16:04:00.231Z,31.96
2018-07-25T16:06:30.171Z,31.98
2018-07-25T16:09:00.637Z,32.15
2018-07-25T16:11:31.271Z,32.28
2018-07-25T16:14:01.170Z,32.61
2018-07-25T16:16:31.430Z,33.06
2018-07-25T16:19:01.492Z,33.34
2018-07-25T16:21:33.796Z,33.28
2018-07-25T16:24:03.742Z,33.43
2018-07-25T16:26:33.668Z,33.32
2018-07-25T16:29:05.325Z,33.01
2018-07-25T16:31:36.505Z,32.95
2018-07-25T16:34:06.913Z,32.99
2018-07-25T16:36:37.661Z,32.96
2018-07-25T16:39:10.767Z,32.92
2018-07-25T16:41:41.500Z,32.91
2018-07-25T16:44:12.413Z,32.90
2018-07-25T16:46:43.113Z,32.97
2018-07-25T16:49:13.051Z,32.90
2018-07-25T16:51:44.007Z,32.89
2018-07-25T16:54:15.596Z,32.92
2018-07-25T16:56:48.365Z,33.01
2018-07-25T16:59:18.925Z,32.87
2018-07-25T17:01:49.991Z,32.91
2018-07-25T17:04:20.804Z,32.66
2018-07-25T17:06:51.757Z,32.58
2018-07-25T17:09:22.953Z,32.38
2018-07-25T17:11:54.062Z,32.22
2018-07-25T17:14:24.330Z,31.99
2018-07-25T17:16:55.019Z,31.97
2018-07-25T17:19:25.883Z,31.85
2018-07-25T17:21:57.171Z,31.70
2018-07-25T17:24:27.628Z,31.56
2018-07-25T17:26:58.562Z,31.41
2018-07-25T17:29:28.364Z,31.33
2018-07-25T17:31:58.752Z,31.20
2018-07-25T17:34:35.201Z,31.16
2018-07-25T17:37:05.188Z,31.12
2018-07-25T17:39:35.888Z,31.20
2018-07-25T17:42:06.290Z,31.10
2018-07-25T17:44:36.911Z,31.12
2018-07-25T17:47:07.145Z,30.82
2018-07-25T17:49:38.607Z,30.92
2018-07-25T17:52:09.881Z,30.74
2018-07-25T17:54:45.031Z,30.49
2018-07-25T17:57:15.688Z,30.37
2018-07-25T17:59:46.203Z,30.30
2018-07-25T18:02:16.198Z,30.15
2018-07-25T18:04:48.200Z,29.91
2018-07-25T18:07:22.730Z,29.94
2018-07-25T18:09:53.562Z,29.82
2018-07-25T18:12:24.220Z,29.67
2018-07-25T18:14:55.857Z,29.49
2018-07-25T18:17:26.014Z,29.38
2018-07-25T18:20:02.031Z,29.25
2018-07-25T18:22:31.856Z,29.22
2018-07-25T18:25:05.976Z,29.24
2018-07-25T18:27:35.968Z,29.27
2018-07-25T18:30:07.842Z,29.16
2018-07-25T18:32:38.036Z,29.16
2018-07-25T18:35:23.979Z,29.03
2018-07-25T18:37:54.299Z,28.92
2018-07-25T18:40:25.692Z,28.82
2018-07-25T18:42:56.058Z,28.73
2018-07-25T18:45:26.989Z,28.66
2018-07-25T18:47:56.868Z,28.75
2018-07-25T18:50:27.107Z,28.47
2018-07-25T18:52:56.827Z,28.29
2018-07-25T18:55:37.901Z,28.10
2018-07-25T18:58:08.566Z,28.07
2018-07-25T19:00:39.889Z,28.08
2018-07-25T19:03:09.744Z,28.16
2018-07-25T19:05:40.001Z,28.00
2018-07-25T19:08:09.971Z,27.77
2018-07-25T19:10:41.354Z,27.74
2018-07-25T19:13:17.658Z,27.73
2018-07-25T19:15:58.864Z,27.58
2018-07-25T19:18:29.484Z,27.51
2018-07-25T19:20:59.945Z,27.44
2018-07-25T19:24:45.255Z,27.25
2018-07-25T19:27:16.700Z,27.06
2018-07-25T19:29:47.493Z,27.04
2018-07-25T19:32:17.918Z,26.97
2018-07-25T19:34:48.609Z,26.90
2018-07-25T19:37:19.343Z,26.71
2018-07-25T19:39:49.844Z,26.63
2018-07-25T19:42:19.979Z,26.44
2018-07-25T19:44:50.348Z,26.32
2018-07-25T19:47:20.727Z,26.17
2018-07-25T19:49:50.875Z,26.00
2018-07-25T19:52:29.637Z,25.77
2018-07-25T19:55:01.055Z,25.55
2018-07-25T19:57:32.054Z,25.40
2018-07-25T20:00:03.391Z,25.33
2018-07-25T20:02:34.420Z,25.26
2018-07-25T20:05:10.312Z,25.17
2018-07-25T20:07:41.331Z,24.98
2018-07-25T20:10:14.015Z,24.80
2018-07-25T20:12:45.300Z,24.70
2018-07-25T20:16:22.477Z,24.57
2018-07-25T20:18:53.742Z,24.44
2018-07-25T20:21:25.259Z,24.32
2018-07-25T20:23:56.567Z,24.17
2018-07-25T20:26:27.832Z,24.08
2018-07-25T20:28:58.190Z,23.98
2018-07-25T20:31:29.005Z,23.93
2018-07-25T20:33:59.550Z,23.87
2018-07-25T20:36:30.653Z,23.86
2018-07-25T20:39:04.393Z,23.83
2018-07-25T20:41:37.294Z,23.75
2018-07-25T20:44:10.465Z,23.67
2018-07-25T20:46:40.453Z,23.58
2018-07-25T20:49:14.445Z,23.55
2018-07-25T20:54:56.257Z,23.50
2018-07-25T20:57:26.687Z,23.42
2018-07-25T21:00:07.001Z,23.48
2018-07-25T21:02:47.549Z,23.40
2018-07-25T21:05:31.945Z,23.39
2018-07-25T21:08:04.844Z,23.28
2018-07-25T21:10:47.201Z,23.23
2018-07-25T21:13:37.379Z,23.20
2018-07-25T21:16:22.192Z,23.15
2018-07-25T21:18:52.881Z,23.17
2018-07-25T21:21:24.671Z,23.20
2018-07-25T21:23:57.657Z,23.16
2018-07-25T21:26:31.462Z,23.21
2018-07-25T21:29:02.214Z,23.17
2018-07-25T21:31:40.521Z,23.14
2018-07-25T21:34:13.866Z,23.06
2018-07-25T21:36:44.036Z,23.03
2018-07-25T21:39:15.898Z,22.98
2018-07-25T21:42:02.104Z,22.92
2018-07-25T21:44:38.048Z,22.92
2018-07-25T21:47:10.885Z,22.89
2018-07-25T21:49:43.298Z,22.87
2018-07-25T21:52:17.719Z,22.86
2018-07-25T21:54:47.663Z,22.88
2018-07-25T21:57:18.806Z,22.84
2018-07-25T21:59:48.670Z,22.81
2018-07-25T22:02:18.475Z,22.82
2018-07-25T22:04:48.484Z,22.84
2018-07-25T22:07:18.604Z,22.88
2018-07-25T22:09:48.454Z,22.91
2018-07-25T22:12:18.583Z,22.94
2018-07-25T22:14:48.309Z,22.93
2018-07-25T22:17:23.543Z,22.93
2018-07-25T22:19:53.489Z,22.90
2018-07-25T22:22:25.887Z,22.87
2018-07-25T22:27:47.123Z,22.75
2018-07-25T22:30:16.948Z,22.71
2018-07-25T22:32:46.717Z,22.66
2018-07-25T22:35:20.766Z,22.57
2018-07-25T22:37:54.922Z,22.54
2018-07-25T22:40:25.115Z,22.44
2018-07-25T22:42:55.297Z,22.41
2018-07-25T22:45:27.887Z,22.29
2018-07-25T22:47:58.238Z,22.23
2018-07-25T22:50:28.389Z,22.19
2018-07-25T22:52:59.166Z,22.18
2018-07-25T22:55:29.020Z,22.21
2018-07-25T22:57:59.175Z,22.13
2018-07-25T23:00:28.919Z,22.11
2018-07-25T23:02:58.834Z,22.08
2018-07-25T23:05:28.700Z,22.05
2018-07-25T23:07:58.507Z,21.97
2018-07-25T23:10:28.525Z,21.90
2018-07-25T23:12:58.685Z,21.83
2018-07-25T23:15:28.662Z,21.72
2018-07-25T23:17:58.570Z,21.61
2018-07-25T23:20:28.647Z,21.58
2018-07-25T23:22:59.914Z,21.52
2018-07-25T23:25:30.494Z,21.52
2018-07-25T23:28:01.642Z,21.48
2018-07-25T23:30:31.435Z,21.40
2018-07-25T23:33:01.400Z,21.35
2018-07-25T23:35:32.158Z,21.29
2018-07-25T23:38:02.452Z,21.29
2018-07-25T23:40:32.758Z,21.25
2018-07-25T23:43:03.955Z,21.19
2018-07-25T23:45:35.490Z,21.17
2018-07-25T23:48:05.357Z,21.05
2018-07-25T23:50:35.492Z,21.02
2018-07-25T23:53:05.367Z,20.95
2018-07-25T23:55:35.200Z,20.86
